sensor_id;sensor_type;location;lat;lon;timestamp;temperature;humidity
24468;DHT22;12634;50.852;5.676;2023-02-24T00:00:15;6.40;99.90
24468;DHT22;12634;50.852;5.676;2023-02-24T00:02:59;6.40;99.90
24468;DHT22;12634;50.852;5.676;2023-02-24T00:05:37;6.40;99.90
24468;DHT22;12634;50.852;5.676;2023-02-24T00:08:09;6.30;99.90
24468;DHT22;12634;50.852;5.676;2023-02-24T00:10:36;6.30;99.90
24468;DHT22;12634;50.852;5.676;2023-02-24T00:13:03;6.20;99.90
24468;DHT22;12634;50.852;5.676;2023-02-24T00:15:31;6.30;99.90
24468;DHT22;12634;50.852;5.676;2023-02-24T00:17:59;6.20;99.90
24468;DHT22;12634;50.852;5.676;2023-02-24T00:20:31;6.20;99.90
24468;DHT22;12634;50.852;5.676;2023-02-24T00:23:00;6.10;99.90
24468;DHT22;12634;50.852;5.676;2023-02-24T00:25:28;6.10;99.90
24468;DHT22;12634;50.852;5.676;2023-02-24T00:27:55;6.10;99.90
24468;DHT22;12634;50.852;5.676;2023-02-24T00:30:26;6.00;99.90
24468;DHT22;12634;50.852;5.676;2023-02-24T00:32:54;6.10;99.90
24468;DHT22;12634;50.852;5.676;2023-02-24T00:35:25;6.00;99.90
24468;DHT22;12634;50.852;5.676;2023-02-24T00:37:54;6.00;99.90
24468;DHT22;12634;50.852;5.676;2023-02-24T00:40:22;6.00;99.90
24468;DHT22;12634;50.852;5.676;2023-02-24T00:42:50;6.00;99.90
24468;DHT22;12634;50.852;5.676;2023-02-24T00:45:18;6.00;99.90
24468;DHT22;12634;50.852;5.676;2023-02-24T00:47:46;5.90;99.90
24468;DHT22;12634;50.852;5.676;2023-02-24T00:50:13;5.90;99.90
24468;DHT22;12634;50.852;5.676;2023-02-24T00:52:40;5.90;99.90
24468;DHT22;12634;50.852;5.676;2023-02-24T00:55:09;5.90;99.90
24468;DHT22;12634;50.852;5.676;2023-02-24T00:57:41;5.90;99.90
24468;DHT22;12634;50.852;5.676;2023-02-24T01:00:10;5.90;99.90
24468;DHT22;12634;50.852;5.676;2023-02-24T01:02:41;5.90;99.90
24468;DHT22;12634;50.852;5.676;2023-02-24T01:05:10;5.90;99.90
24468;DHT22;12634;50.852;5.676;2023-02-24T01:07:38;5.90;99.90
24468;DHT22;12634;50.852;5.676;2023-02-24T01:10:05;5.90;99.90
24468;DHT22;12634;50.852;5.676;2023-02-24T01:12:33;5.80;99.90
24468;DHT22;12634;50.852;5.676;2023-02-24T01:15:18;5.90;99.90
24468;DHT22;12634;50.852;5.676;2023-02-24T01:17:45;5.80;99.90
24468;DHT22;12634;50.852;5.676;2023-02-24T01:20:13;5.90;99.90
24468;DHT22;12634;50.852;5.676;2023-02-24T01:22:44;5.90;99.90
24468;DHT22;12634;50.852;5.676;2023-02-24T01:25:12;5.90;99.90
24468;DHT22;12634;50.852;5.676;2023-02-24T01:27:39;5.80;99.90
24468;DHT22;12634;50.852;5.676;2023-02-24T01:30:08;5.90;99.90
24468;DHT22;12634;50.852;5.676;2023-02-24T01:32:42;5.80;99.90
24468;DHT22;12634;50.852;5.676;2023-02-24T01:35:11;5.80;99.90
24468;DHT22;12634;50.852;5.676;2023-02-24T01:37:39;5.80;99.90
24468;DHT22;12634;50.852;5.676;2023-02-24T01:40:11;5.80;99.90
24468;DHT22;12634;50.852;5.676;2023-02-24T01:42:43;5.70;99.90
24468;DHT22;12634;50.852;5.676;2023-02-24T01:45:18;5.70;99.90
24468;DHT22;12634;50.852;5.676;2023-02-24T01:47:48;5.70;99.90
24468;DHT22;12634;50.852;5.676;2023-02-24T01:50:17;5.70;99.90
24468;DHT22;12634;50.852;5.676;2023-02-24T01:52:47;5.70;99.90
24468;DHT22;12634;50.852;5.676;2023-02-24T01:55:19;5.60;99.90
24468;DHT22;12634;50.852;5.676;2023-02-24T01:57:51;5.60;99.90
24468;DHT22;12634;50.852;5.676;2023-02-24T02:00:20;5.70;99.90
24468;DHT22;12634;50.852;5.676;2023-02-24T02:03:11;5.70;99.90
24468;DHT22;12634;50.852;5.676;2023-02-24T02:05:41;5.60;99.90
24468;DHT22;12634;50.852;5.676;2023-02-24T02:08:11;5.60;99.90
24468;DHT22;12634;50.852;5.676;2023-02-24T02:10:40;5.60;99.90
24468;DHT22;12634;50.852;5.676;2023-02-24T02:13:09;5.60;99.90
24468;DHT22;12634;50.852;5.676;2023-02-24T02:15:44;5.60;99.90
24468;DHT22;12634;50.852;5.676;2023-02-24T02:18:19;5.60;99.90
24468;DHT22;12634;50.852;5.676;2023-02-24T02:21:19;5.60;99.90
24468;DHT22;12634;50.852;5.676;2023-02-24T02:27:27;5.50;99.90
24468;DHT22;12634;50.852;5.676;2023-02-24T02:30:36;5.50;99.90
24468;DHT22;12634;50.852;5.676;2023-02-24T02:36:15;5.50;99.90
24468;DHT22;12634;50.852;5.676;2023-02-24T02:38:52;5.50;99.90
24468;DHT22;12634;50.852;5.676;2023-02-24T02:41:23;5.50;99.90
24468;DHT22;12634;50.852;5.676;2023-02-24T02:44:00;5.50;99.90
24468;DHT22;12634;50.852;5.676;2023-02-24T02:46:33;5.40;99.90
24468;DHT22;12634;50.852;5.676;2023-02-24T02:49:05;5.50;99.90
24468;DHT22;12634;50.852;5.676;2023-02-24T02:51:39;5.40;99.90
24468;DHT22;12634;50.852;5.676;2023-02-24T02:54:14;5.40;99.90
24468;DHT22;12634;50.852;5.676;2023-02-24T02:56:45;5.40;99.90
24468;DHT22;12634;50.852;5.676;2023-02-24T02:59:16;5.40;99.90
24468;DHT22;12634;50.852;5.676;2023-02-24T03:01:49;5.40;99.90
24468;DHT22;12634;50.852;5.676;2023-02-24T03:04:20;5.40;99.90
24468;DHT22;12634;50.852;5.676;2023-02-24T03:06:55;5.30;99.90
24468;DHT22;12634;50.852;5.676;2023-02-24T03:09:25;5.30;99.90
24468;DHT22;12634;50.852;5.676;2023-02-24T03:11:56;5.30;99.90
24468;DHT22;12634;50.852;5.676;2023-02-24T03:14:27;5.30;99.90
24468;DHT22;12634;50.852;5.676;2023-02-24T03:16:58;5.30;99.90
24468;DHT22;12634;50.852;5.676;2023-02-24T03:19:29;5.20;99.90
24468;DHT22;12634;50.852;5.676;2023-02-24T03:22:03;5.20;99.90
24468;DHT22;12634;50.852;5.676;2023-02-24T03:24:33;5.10;99.90
24468;DHT22;12634;50.852;5.676;2023-02-24T03:27:07;5.10;99.90
24468;DHT22;12634;50.852;5.676;2023-02-24T03:29:41;5.10;99.90
24468;DHT22;12634;50.852;5.676;2023-02-24T03:32:13;5.10;99.90
24468;DHT22;12634;50.852;5.676;2023-02-24T03:34:46;5.10;99.90
24468;DHT22;12634;50.852;5.676;2023-02-24T03:37:17;5.00;99.90
24468;DHT22;12634;50.852;5.676;2023-02-24T03:39:51;5.00;99.90
24468;DHT22;12634;50.852;5.676;2023-02-24T03:42:19;4.90;99.90
24468;DHT22;12634;50.852;5.676;2023-02-24T03:44:48;4.80;99.90
24468;DHT22;12634;50.852;5.676;2023-02-24T03:47:16;4.70;99.90
24468;DHT22;12634;50.852;5.676;2023-02-24T03:49:45;4.70;99.90
24468;DHT22;12634;50.852;5.676;2023-02-24T03:52:24;4.80;99.90
24468;DHT22;12634;50.852;5.676;2023-02-24T03:55:15;4.80;99.90
24468;DHT22;12634;50.852;5.676;2023-02-24T03:57:50;4.90;99.90
24468;DHT22;12634;50.852;5.676;2023-02-24T04:00:31;4.90;99.90
24468;DHT22;12634;50.852;5.676;2023-02-24T04:03:11;4.90;99.90
24468;DHT22;12634;50.852;5.676;2023-02-24T04:05:44;4.90;99.90
24468;DHT22;12634;50.852;5.676;2023-02-24T04:08:16;4.90;99.90
24468;DHT22;12634;50.852;5.676;2023-02-24T04:10:48;4.90;99.90
24468;DHT22;12634;50.852;5.676;2023-02-24T04:13:25;4.90;99.90
24468;DHT22;12634;50.852;5.676;2023-02-24T04:16:01;5.00;99.90
24468;DHT22;12634;50.852;5.676;2023-02-24T04:18:33;5.00;99.90
24468;DHT22;12634;50.852;5.676;2023-02-24T04:21:02;5.00;99.90
24468;DHT22;12634;50.852;5.676;2023-02-24T04:23:34;5.00;99.90
24468;DHT22;12634;50.852;5.676;2023-02-24T04:26:04;5.00;99.90
24468;DHT22;12634;50.852;5.676;2023-02-24T04:28:33;5.00;99.90
24468;DHT22;12634;50.852;5.676;2023-02-24T04:31:03;4.90;99.90
24468;DHT22;12634;50.852;5.676;2023-02-24T04:33:32;4.90;99.90
24468;DHT22;12634;50.852;5.676;2023-02-24T04:35:59;4.90;99.90
24468;DHT22;12634;50.852;5.676;2023-02-24T04:38:26;4.90;99.90
24468;DHT22;12634;50.852;5.676;2023-02-24T04:40:55;4.90;99.90
24468;DHT22;12634;50.852;5.676;2023-02-24T04:43:22;4.90;99.90
24468;DHT22;12634;50.852;5.676;2023-02-24T04:45:49;4.80;99.90
24468;DHT22;12634;50.852;5.676;2023-02-24T04:48:17;4.60;99.90
24468;DHT22;12634;50.852;5.676;2023-02-24T04:50:45;4.50;99.90
24468;DHT22;12634;50.852;5.676;2023-02-24T04:53:15;4.20;99.90
24468;DHT22;12634;50.852;5.676;2023-02-24T04:55:44;3.90;99.90
24468;DHT22;12634;50.852;5.676;2023-02-24T04:58:15;3.90;99.90
24468;DHT22;12634;50.852;5.676;2023-02-24T05:00:45;3.60;99.90
24468;DHT22;12634;50.852;5.676;2023-02-24T05:03:14;3.50;99.90
24468;DHT22;12634;50.852;5.676;2023-02-24T05:05:48;3.70;99.90
24468;DHT22;12634;50.852;5.676;2023-02-24T05:08:18;3.60;99.90
24468;DHT22;12634;50.852;5.676;2023-02-24T05:10:46;3.60;99.90
24468;DHT22;12634;50.852;5.676;2023-02-24T05:13:16;3.70;99.90
24468;DHT22;12634;50.852;5.676;2023-02-24T05:15:47;3.70;99.90
24468;DHT22;12634;50.852;5.676;2023-02-24T05:18:16;3.80;99.90
24468;DHT22;12634;50.852;5.676;2023-02-24T05:20:45;3.80;99.90
24468;DHT22;12634;50.852;5.676;2023-02-24T05:23:32;3.80;99.90
24468;DHT22;12634;50.852;5.676;2023-02-24T05:26:01;3.80;99.90
24468;DHT22;12634;50.852;5.676;2023-02-24T05:28:35;3.80;99.90
24468;DHT22;12634;50.852;5.676;2023-02-24T05:31:07;3.90;99.90
24468;DHT22;12634;50.852;5.676;2023-02-24T05:33:35;4.00;99.90
24468;DHT22;12634;50.852;5.676;2023-02-24T05:36:05;3.90;99.90
24468;DHT22;12634;50.852;5.676;2023-02-24T05:38:33;3.80;99.90
24468;DHT22;12634;50.852;5.676;2023-02-24T05:41:06;3.60;99.90
24468;DHT22;12634;50.852;5.676;2023-02-24T05:43:35;3.60;99.90
24468;DHT22;12634;50.852;5.676;2023-02-24T05:46:04;3.70;99.90
24468;DHT22;12634;50.852;5.676;2023-02-24T05:48:31;3.80;99.90
24468;DHT22;12634;50.852;5.676;2023-02-24T05:51:00;3.80;99.90
24468;DHT22;12634;50.852;5.676;2023-02-24T05:53:28;3.90;99.90
24468;DHT22;12634;50.852;5.676;2023-02-24T05:56:00;3.80;99.90
24468;DHT22;12634;50.852;5.676;2023-02-24T05:58:30;3.80;99.90
24468;DHT22;12634;50.852;5.676;2023-02-24T06:00:59;3.80;99.90
24468;DHT22;12634;50.852;5.676;2023-02-24T06:03:31;3.80;99.90
24468;DHT22;12634;50.852;5.676;2023-02-24T06:06:00;3.80;99.90
24468;DHT22;12634;50.852;5.676;2023-02-24T06:08:34;3.70;99.90
24468;DHT22;12634;50.852;5.676;2023-02-24T06:11:07;3.60;99.90
24468;DHT22;12634;50.852;5.676;2023-02-24T06:13:35;3.40;99.90
24468;DHT22;12634;50.852;5.676;2023-02-24T06:16:05;3.40;99.90
24468;DHT22;12634;50.852;5.676;2023-02-24T06:18:33;3.30;99.90
24468;DHT22;12634;50.852;5.676;2023-02-24T06:21:00;3.30;99.90
24468;DHT22;12634;50.852;5.676;2023-02-24T06:23:28;3.30;99.90
24468;DHT22;12634;50.852;5.676;2023-02-24T06:25:55;3.20;99.90
24468;DHT22;12634;50.852;5.676;2023-02-24T06:28:27;3.20;99.90
24468;DHT22;12634;50.852;5.676;2023-02-24T06:30:54;3.50;99.90
24468;DHT22;12634;50.852;5.676;2023-02-24T06:33:23;3.70;99.90
24468;DHT22;12634;50.852;5.676;2023-02-24T06:35:52;3.70;99.90
24468;DHT22;12634;50.852;5.676;2023-02-24T06:38:19;3.70;99.90
24468;DHT22;12634;50.852;5.676;2023-02-24T06:40:46;3.70;99.90
24468;DHT22;12634;50.852;5.676;2023-02-24T06:43:20;3.90;99.90
24468;DHT22;12634;50.852;5.676;2023-02-24T06:45:47;4.00;99.90
24468;DHT22;12634;50.852;5.676;2023-02-24T06:48:15;4.10;99.90
24468;DHT22;12634;50.852;5.676;2023-02-24T06:50:43;4.20;99.90
24468;DHT22;12634;50.852;5.676;2023-02-24T06:53:10;4.30;99.90
24468;DHT22;12634;50.852;5.676;2023-02-24T06:55:41;4.40;99.90
24468;DHT22;12634;50.852;5.676;2023-02-24T06:58:15;4.40;99.90
24468;DHT22;12634;50.852;5.676;2023-02-24T07:00:43;4.40;99.90
24468;DHT22;12634;50.852;5.676;2023-02-24T07:03:23;4.50;99.90
24468;DHT22;12634;50.852;5.676;2023-02-24T07:06:06;4.50;99.90
24468;DHT22;12634;50.852;5.676;2023-02-24T07:08:57;4.50;99.90
24468;DHT22;12634;50.852;5.676;2023-02-24T07:11:27;4.50;99.90
24468;DHT22;12634;50.852;5.676;2023-02-24T07:13:54;4.50;99.90
24468;DHT22;12634;50.852;5.676;2023-02-24T07:16:22;4.50;99.90
24468;DHT22;12634;50.852;5.676;2023-02-24T07:18:53;4.50;99.90
24468;DHT22;12634;50.852;5.676;2023-02-24T07:21:24;4.50;99.90
24468;DHT22;12634;50.852;5.676;2023-02-24T07:23:52;4.50;99.90
24468;DHT22;12634;50.852;5.676;2023-02-24T07:26:23;4.40;99.90
24468;DHT22;12634;50.852;5.676;2023-02-24T07:28:52;4.40;99.90
24468;DHT22;12634;50.852;5.676;2023-02-24T07:31:23;4.40;99.90
24468;DHT22;12634;50.852;5.676;2023-02-24T07:33:53;4.30;99.90
24468;DHT22;12634;50.852;5.676;2023-02-24T07:36:23;4.30;99.90
24468;DHT22;12634;50.852;5.676;2023-02-24T07:38:56;4.40;99.90
24468;DHT22;12634;50.852;5.676;2023-02-24T07:41:24;4.40;99.90
24468;DHT22;12634;50.852;5.676;2023-02-24T07:43:53;4.40;99.90
24468;DHT22;12634;50.852;5.676;2023-02-24T07:46:22;4.40;99.90
24468;DHT22;12634;50.852;5.676;2023-02-24T07:48:50;4.50;99.90
24468;DHT22;12634;50.852;5.676;2023-02-24T07:51:19;4.40;99.90
24468;DHT22;12634;50.852;5.676;2023-02-24T07:53:50;4.50;99.90
24468;DHT22;12634;50.852;5.676;2023-02-24T07:56:18;4.50;99.90
24468;DHT22;12634;50.852;5.676;2023-02-24T07:58:52;4.50;99.90
24468;DHT22;12634;50.852;5.676;2023-02-24T08:01:24;4.60;99.90
24468;DHT22;12634;50.852;5.676;2023-02-24T08:03:55;4.70;99.90
24468;DHT22;12634;50.852;5.676;2023-02-24T08:06:23;4.60;99.90
24468;DHT22;12634;50.852;5.676;2023-02-24T08:09:05;4.70;99.90
24468;DHT22;12634;50.852;5.676;2023-02-24T08:11:44;4.60;99.90
24468;DHT22;12634;50.852;5.676;2023-02-24T08:14:12;4.70;99.90
24468;DHT22;12634;50.852;5.676;2023-02-24T08:16:40;4.70;99.90
24468;DHT22;12634;50.852;5.676;2023-02-24T08:19:09;4.70;99.90
24468;DHT22;12634;50.852;5.676;2023-02-24T08:21:39;4.80;99.90
24468;DHT22;12634;50.852;5.676;2023-02-24T08:24:13;4.70;99.90
24468;DHT22;12634;50.852;5.676;2023-02-24T08:26:43;4.70;99.90
24468;DHT22;12634;50.852;5.676;2023-02-24T08:29:11;4.80;99.90
24468;DHT22;12634;50.852;5.676;2023-02-24T08:31:38;4.80;99.90
24468;DHT22;12634;50.852;5.676;2023-02-24T08:34:05;4.90;99.90
24468;DHT22;12634;50.852;5.676;2023-02-24T08:36:32;5.00;99.90
24468;DHT22;12634;50.852;5.676;2023-02-24T08:38:59;5.00;99.90
24468;DHT22;12634;50.852;5.676;2023-02-24T08:41:28;5.00;99.90
24468;DHT22;12634;50.852;5.676;2023-02-24T08:44:11;5.00;99.90
24468;DHT22;12634;50.852;5.676;2023-02-24T08:46:43;5.10;99.90
24468;DHT22;12634;50.852;5.676;2023-02-24T08:49:10;5.20;99.90
24468;DHT22;12634;50.852;5.676;2023-02-24T08:51:42;5.20;99.90
24468;DHT22;12634;50.852;5.676;2023-02-24T08:54:12;5.30;99.90
24468;DHT22;12634;50.852;5.676;2023-02-24T08:56:44;5.40;99.90
24468;DHT22;12634;50.852;5.676;2023-02-24T08:59:15;5.50;99.90
24468;DHT22;12634;50.852;5.676;2023-02-24T09:02:05;5.50;99.90
24468;DHT22;12634;50.852;5.676;2023-02-24T09:04:50;5.60;99.90
24468;DHT22;12634;50.852;5.676;2023-02-24T09:07:20;5.90;99.90
24468;DHT22;12634;50.852;5.676;2023-02-24T09:09:48;5.90;99.90
24468;DHT22;12634;50.852;5.676;2023-02-24T09:12:17;5.80;99.90
24468;DHT22;12634;50.852;5.676;2023-02-24T09:14:52;5.80;99.90
24468;DHT22;12634;50.852;5.676;2023-02-24T09:17:24;5.80;99.90
24468;DHT22;12634;50.852;5.676;2023-02-24T09:20:07;6.00;99.90
24468;DHT22;12634;50.852;5.676;2023-02-24T09:22:53;5.90;99.90
24468;DHT22;12634;50.852;5.676;2023-02-24T09:25:26;5.90;99.90
24468;DHT22;12634;50.852;5.676;2023-02-24T09:28:08;6.20;99.90
24468;DHT22;12634;50.852;5.676;2023-02-24T09:30:37;6.30;99.90
24468;DHT22;12634;50.852;5.676;2023-02-24T09:33:17;6.40;99.90
24468;DHT22;12634;50.852;5.676;2023-02-24T09:35:51;6.20;99.90
24468;DHT22;12634;50.852;5.676;2023-02-24T09:38:20;6.10;99.90
24468;DHT22;12634;50.852;5.676;2023-02-24T09:41:19;5.80;99.90
24468;DHT22;12634;50.852;5.676;2023-02-24T09:43:59;5.90;99.90
24468;DHT22;12634;50.852;5.676;2023-02-24T09:46:32;6.10;99.90
24468;DHT22;12634;50.852;5.676;2023-02-24T09:49:06;6.50;99.90
24468;DHT22;12634;50.852;5.676;2023-02-24T09:51:37;6.50;99.90
24468;DHT22;12634;50.852;5.676;2023-02-24T09:54:13;6.70;99.90
24468;DHT22;12634;50.852;5.676;2023-02-24T09:56:47;6.70;99.90
24468;DHT22;12634;50.852;5.676;2023-02-24T09:59:28;6.40;99.90
24468;DHT22;12634;50.852;5.676;2023-02-24T10:02:10;6.20;99.90
24468;DHT22;12634;50.852;5.676;2023-02-24T10:04:53;6.40;99.90
24468;DHT22;12634;50.852;5.676;2023-02-24T10:07:34;6.30;99.90
24468;DHT22;12634;50.852;5.676;2023-02-24T10:10:09;6.30;99.90
24468;DHT22;12634;50.852;5.676;2023-02-24T10:12:56;6.50;99.90
24468;DHT22;12634;50.852;5.676;2023-02-24T10:15:29;6.80;99.90
24468;DHT22;12634;50.852;5.676;2023-02-24T10:18:26;6.90;99.90
24468;DHT22;12634;50.852;5.676;2023-02-24T10:20:59;6.90;99.90
24468;DHT22;12634;50.852;5.676;2023-02-24T10:23:37;6.90;99.90
24468;DHT22;12634;50.852;5.676;2023-02-24T10:26:15;7.00;99.90
24468;DHT22;12634;50.852;5.676;2023-02-24T10:29:01;6.70;99.90
24468;DHT22;12634;50.852;5.676;2023-02-24T10:31:40;6.40;99.90
24468;DHT22;12634;50.852;5.676;2023-02-24T10:34:12;6.10;99.90
24468;DHT22;12634;50.852;5.676;2023-02-24T10:36:44;6.10;99.90
24468;DHT22;12634;50.852;5.676;2023-02-24T10:39:16;5.90;99.90
24468;DHT22;12634;50.852;5.676;2023-02-24T10:41:47;5.90;99.90
24468;DHT22;12634;50.852;5.676;2023-02-24T10:44:21;5.90;99.90
24468;DHT22;12634;50.852;5.676;2023-02-24T10:47:00;6.00;99.90
24468;DHT22;12634;50.852;5.676;2023-02-24T10:49:40;5.90;99.90
24468;DHT22;12634;50.852;5.676;2023-02-24T10:52:23;5.70;99.90
24468;DHT22;12634;50.852;5.676;2023-02-24T10:55:24;5.80;99.90
24468;DHT22;12634;50.852;5.676;2023-02-24T10:58:05;5.80;99.90
24468;DHT22;12634;50.852;5.676;2023-02-24T11:00:43;5.80;99.90
24468;DHT22;12634;50.852;5.676;2023-02-24T11:03:38;5.80;99.90
24468;DHT22;12634;50.852;5.676;2023-02-24T11:06:17;5.80;99.90
24468;DHT22;12634;50.852;5.676;2023-02-24T11:08:58;5.80;99.90
24468;DHT22;12634;50.852;5.676;2023-02-24T11:11:45;5.80;99.90
24468;DHT22;12634;50.852;5.676;2023-02-24T11:14:49;5.80;99.90
24468;DHT22;12634;50.852;5.676;2023-02-24T11:17:35;5.80;99.90
24468;DHT22;12634;50.852;5.676;2023-02-24T11:20:10;5.80;99.90
24468;DHT22;12634;50.852;5.676;2023-02-24T11:22:42;5.70;99.90
24468;DHT22;12634;50.852;5.676;2023-02-24T11:25:20;5.60;99.90
24468;DHT22;12634;50.852;5.676;2023-02-24T11:27:48;5.60;99.90
24468;DHT22;12634;50.852;5.676;2023-02-24T11:30:23;5.60;99.90
24468;DHT22;12634;50.852;5.676;2023-02-24T11:33:07;5.60;99.90
24468;DHT22;12634;50.852;5.676;2023-02-24T11:35:45;5.60;99.90
24468;DHT22;12634;50.852;5.676;2023-02-24T11:38:22;5.60;99.90
24468;DHT22;12634;50.852;5.676;2023-02-24T11:41:00;5.50;99.90
24468;DHT22;12634;50.852;5.676;2023-02-24T11:43:33;5.40;99.90
24468;DHT22;12634;50.852;5.676;2023-02-24T11:46:06;5.50;99.90
24468;DHT22;12634;50.852;5.676;2023-02-24T11:48:37;5.50;99.90
24468;DHT22;12634;50.852;5.676;2023-02-24T11:51:09;5.60;99.90
24468;DHT22;12634;50.852;5.676;2023-02-24T11:53:45;5.60;99.90
24468;DHT22;12634;50.852;5.676;2023-02-24T11:56:17;5.60;99.90
24468;DHT22;12634;50.852;5.676;2023-02-24T11:58:51;5.70;99.90
24468;DHT22;12634;50.852;5.676;2023-02-24T12:01:26;5.60;99.90
24468;DHT22;12634;50.852;5.676;2023-02-24T12:04:02;5.70;99.90
24468;DHT22;12634;50.852;5.676;2023-02-24T12:06:49;5.70;99.90
24468;DHT22;12634;50.852;5.676;2023-02-24T12:09:20;5.90;99.90
24468;DHT22;12634;50.852;5.676;2023-02-24T12:11:53;6.10;99.90
24468;DHT22;12634;50.852;5.676;2023-02-24T12:14:26;6.10;99.90
24468;DHT22;12634;50.852;5.676;2023-02-24T12:17:00;6.10;99.90
24468;DHT22;12634;50.852;5.676;2023-02-24T12:19:36;6.10;99.90
24468;DHT22;12634;50.852;5.676;2023-02-24T12:22:12;5.90;99.90
24468;DHT22;12634;50.852;5.676;2023-02-24T12:24:42;5.90;99.90
24468;DHT22;12634;50.852;5.676;2023-02-24T12:27:16;5.90;99.90
24468;DHT22;12634;50.852;5.676;2023-02-24T12:29:58;6.00;99.90
24468;DHT22;12634;50.852;5.676;2023-02-24T12:32:43;5.90;99.90
24468;DHT22;12634;50.852;5.676;2023-02-24T12:35:16;5.90;99.90
24468;DHT22;12634;50.852;5.676;2023-02-24T12:37:58;6.00;99.90
24468;DHT22;12634;50.852;5.676;2023-02-24T12:40:34;6.10;99.90
24468;DHT22;12634;50.852;5.676;2023-02-24T12:43:17;6.20;99.90
24468;DHT22;12634;50.852;5.676;2023-02-24T12:45:50;6.20;99.90
24468;DHT22;12634;50.852;5.676;2023-02-24T12:48:44;6.20;99.90
24468;DHT22;12634;50.852;5.676;2023-02-24T12:51:20;6.10;99.90
24468;DHT22;12634;50.852;5.676;2023-02-24T12:53:58;6.10;99.90
24468;DHT22;12634;50.852;5.676;2023-02-24T12:56:35;6.10;99.90
24468;DHT22;12634;50.852;5.676;2023-02-24T12:59:06;6.10;99.90
24468;DHT22;12634;50.852;5.676;2023-02-24T13:01:38;6.20;99.90
24468;DHT22;12634;50.852;5.676;2023-02-24T13:04:20;6.30;99.90
24468;DHT22;12634;50.852;5.676;2023-02-24T13:06:57;6.20;99.90
24468;DHT22;12634;50.852;5.676;2023-02-24T13:09:33;6.20;99.90
24468;DHT22;12634;50.852;5.676;2023-02-24T13:12:11;6.20;99.90
24468;DHT22;12634;50.852;5.676;2023-02-24T13:14:40;6.30;99.90
24468;DHT22;12634;50.852;5.676;2023-02-24T13:17:19;6.40;99.90
24468;DHT22;12634;50.852;5.676;2023-02-24T13:19:48;6.40;99.90
24468;DHT22;12634;50.852;5.676;2023-02-24T13:22:24;6.40;99.90
24468;DHT22;12634;50.852;5.676;2023-02-24T13:25:09;6.30;99.90
24468;DHT22;12634;50.852;5.676;2023-02-24T13:27:40;6.30;99.90
24468;DHT22;12634;50.852;5.676;2023-02-24T13:30:24;6.40;99.90
24468;DHT22;12634;50.852;5.676;2023-02-24T13:33:04;6.50;99.90
24468;DHT22;12634;50.852;5.676;2023-02-24T13:35:34;6.50;99.90
24468;DHT22;12634;50.852;5.676;2023-02-24T13:38:22;6.40;99.90
24468;DHT22;12634;50.852;5.676;2023-02-24T13:40:51;6.40;99.90
24468;DHT22;12634;50.852;5.676;2023-02-24T13:43:24;6.40;99.90
24468;DHT22;12634;50.852;5.676;2023-02-24T13:45:57;6.40;99.90
24468;DHT22;12634;50.852;5.676;2023-02-24T13:48:44;6.50;99.90
24468;DHT22;12634;50.852;5.676;2023-02-24T13:54:12;6.50;99.90
24468;DHT22;12634;50.852;5.676;2023-02-24T13:56:50;6.50;99.90
24468;DHT22;12634;50.852;5.676;2023-02-24T13:59:39;6.60;99.90
24468;DHT22;12634;50.852;5.676;2023-02-24T14:02:13;6.60;99.90
24468;DHT22;12634;50.852;5.676;2023-02-24T14:04:46;6.60;99.90
24468;DHT22;12634;50.852;5.676;2023-02-24T14:07:20;6.50;99.90
24468;DHT22;12634;50.852;5.676;2023-02-24T14:09:51;6.50;99.90
24468;DHT22;12634;50.852;5.676;2023-02-24T14:12:23;6.40;99.90
24468;DHT22;12634;50.852;5.676;2023-02-24T14:14:51;6.50;99.90
24468;DHT22;12634;50.852;5.676;2023-02-24T14:17:21;6.60;99.90
24468;DHT22;12634;50.852;5.676;2023-02-24T14:19:51;6.40;99.90
24468;DHT22;12634;50.852;5.676;2023-02-24T14:22:19;6.40;99.90
24468;DHT22;12634;50.852;5.676;2023-02-24T14:24:47;6.30;99.90
24468;DHT22;12634;50.852;5.676;2023-02-24T14:27:23;6.30;99.90
24468;DHT22;12634;50.852;5.676;2023-02-24T14:29:52;6.40;99.90
24468;DHT22;12634;50.852;5.676;2023-02-24T14:32:21;6.40;99.90
24468;DHT22;12634;50.852;5.676;2023-02-24T14:34:49;6.30;99.90
24468;DHT22;12634;50.852;5.676;2023-02-24T14:37:21;6.30;99.90
24468;DHT22;12634;50.852;5.676;2023-02-24T14:39:51;6.30;99.90
24468;DHT22;12634;50.852;5.676;2023-02-24T14:42:21;6.20;99.90
24468;DHT22;12634;50.852;5.676;2023-02-24T14:44:50;6.20;99.90
24468;DHT22;12634;50.852;5.676;2023-02-24T14:47:20;6.20;99.90
24468;DHT22;12634;50.852;5.676;2023-02-24T14:49:52;6.20;99.90
24468;DHT22;12634;50.852;5.676;2023-02-24T14:52:30;6.10;99.90
24468;DHT22;12634;50.852;5.676;2023-02-24T14:55:01;6.10;99.90
24468;DHT22;12634;50.852;5.676;2023-02-24T14:57:35;6.00;99.90
24468;DHT22;12634;50.852;5.676;2023-02-24T15:00:06;6.00;99.90
24468;DHT22;12634;50.852;5.676;2023-02-24T15:02:40;6.00;99.90
24468;DHT22;12634;50.852;5.676;2023-02-24T15:05:09;6.00;99.90
24468;DHT22;12634;50.852;5.676;2023-02-24T15:07:38;5.90;99.90
24468;DHT22;12634;50.852;5.676;2023-02-24T15:10:13;5.80;99.90
24468;DHT22;12634;50.852;5.676;2023-02-24T15:12:49;5.80;99.90
24468;DHT22;12634;50.852;5.676;2023-02-24T15:15:20;5.80;99.90
24468;DHT22;12634;50.852;5.676;2023-02-24T15:17:52;5.80;99.90
24468;DHT22;12634;50.852;5.676;2023-02-24T15:20:27;5.80;99.90
24468;DHT22;12634;50.852;5.676;2023-02-24T15:22:55;5.80;99.90
24468;DHT22;12634;50.852;5.676;2023-02-24T15:25:24;5.80;99.90
24468;DHT22;12634;50.852;5.676;2023-02-24T15:27:54;5.70;99.90
24468;DHT22;12634;50.852;5.676;2023-02-24T15:30:29;5.70;99.90
24468;DHT22;12634;50.852;5.676;2023-02-24T15:33:05;5.70;99.90
24468;DHT22;12634;50.852;5.676;2023-02-24T15:35:35;5.70;99.90
24468;DHT22;12634;50.852;5.676;2023-02-24T15:38:05;5.80;99.90
24468;DHT22;12634;50.852;5.676;2023-02-24T15:40:32;5.80;99.90
24468;DHT22;12634;50.852;5.676;2023-02-24T15:43:08;5.80;99.90
24468;DHT22;12634;50.852;5.676;2023-02-24T15:45:38;5.80;99.90
24468;DHT22;12634;50.852;5.676;2023-02-24T15:48:18;5.80;99.90
24468;DHT22;12634;50.852;5.676;2023-02-24T15:50:47;5.80;99.90
24468;DHT22;12634;50.852;5.676;2023-02-24T15:53:14;5.80;99.90
24468;DHT22;12634;50.852;5.676;2023-02-24T15:55:42;5.80;99.90
24468;DHT22;12634;50.852;5.676;2023-02-24T15:58:15;5.80;99.90
24468;DHT22;12634;50.852;5.676;2023-02-24T16:00:43;5.80;99.90
24468;DHT22;12634;50.852;5.676;2023-02-24T16:03:10;5.80;99.90
24468;DHT22;12634;50.852;5.676;2023-02-24T16:05:37;5.80;99.90
24468;DHT22;12634;50.852;5.676;2023-02-24T16:08:05;5.90;99.90
24468;DHT22;12634;50.852;5.676;2023-02-24T16:10:35;5.90;99.90
24468;DHT22;12634;50.852;5.676;2023-02-24T16:13:02;5.90;99.90
24468;DHT22;12634;50.852;5.676;2023-02-24T16:15:33;5.90;99.90
24468;DHT22;12634;50.852;5.676;2023-02-24T16:18:03;5.90;99.90
24468;DHT22;12634;50.852;5.676;2023-02-24T16:20:36;5.90;99.90
24468;DHT22;12634;50.852;5.676;2023-02-24T16:23:04;6.00;99.90
24468;DHT22;12634;50.852;5.676;2023-02-24T16:25:35;6.00;99.90
24468;DHT22;12634;50.852;5.676;2023-02-24T16:28:02;6.00;99.90
24468;DHT22;12634;50.852;5.676;2023-02-24T16:30:31;6.00;99.90